Time;durP1;ratioP1;P1;durP2;ratioP2;P2;SDS_P1;SDS_P2;PMS_P1;PMS_P2;Temp;Humidity;BMP_temperature;BMP_pressure;BME280_temperature;BME280_humidity;BME280_pressure;Samples;Min_cycle;Max_cycle;Signal;HPM_P1;HPM_P2
2021/11/23 00:01:16;;;;;;;13.60;7.25;;;2.80;99.90;;;;;;6076266;23;20025;-79
2021/11/23 00:03:45;;;;;;;9.30;5.80;;;2.80;99.90;;;;;;6065974;23;20019;-79
2021/11/23 00:06:14;;;;;;;10.65;7.28;;;2.80;99.90;;;;;;6072271;23;20059;-79
2021/11/23 00:08:42;;;;;;;9.77;8.23;;;2.80;99.90;;;;;;6075293;23;20018;-80
2021/11/23 00:11:10;;;;;;;11.38;6.00;;;2.80;99.90;;;;;;6015966;23;20031;-80
2021/11/23 00:13:38;;;;;;;9.10;6.95;;;2.80;99.90;;;;;;6049130;23;20018;-80
2021/11/23 00:16:05;;;;;;;7.03;5.88;;;2.90;99.90;;;;;;6050725;23;20011;-79
2021/11/23 00:18:33;;;;;;;11.23;8.35;;;2.70;99.90;;;;;;6040128;23;20377;-79
2021/11/23 00:21:01;;;;;;;9.35;6.93;;;2.70;99.90;;;;;;6097705;23;20331;-79
2021/11/23 00:23:28;;;;;;;7.03;6.03;;;2.70;99.90;;;;;;6088109;23;20030;-79
2021/11/23 00:25:57;;;;;;;7.82;5.32;;;2.70;99.90;;;;;;6095497;23;20033;-79
2021/11/23 00:28:24;;;;;;;11.20;6.90;;;2.70;99.90;;;;;;6050014;23;20015;-79
2021/11/23 00:30:52;;;;;;;8.38;6.20;;;2.60;99.90;;;;;;6067784;23;20336;-79
2021/11/23 00:33:20;;;;;;;10.02;6.80;;;2.60;99.90;;;;;;6070891;23;20343;-79
2021/11/23 00:35:48;;;;;;;8.20;6.25;;;2.60;99.90;;;;;;6088181;23;20023;-79
2021/11/23 00:38:17;;;;;;;7.60;5.85;;;2.60;99.90;;;;;;6070572;23;20023;-79
2021/11/23 00:40:45;;;;;;;10.05;7.57;;;2.60;99.90;;;;;;6075610;23;20031;-79
2021/11/23 00:43:13;;;;;;;8.52;6.93;;;2.70;99.90;;;;;;6068150;23;20050;-79
2021/11/23 00:45:42;;;;;;;10.93;8.35;;;2.70;99.90;;;;;;6048805;23;20015;-80
2021/11/23 00:48:10;;;;;;;10.98;7.10;;;2.60;99.90;;;;;;6049680;23;20011;-79
2021/11/23 00:50:38;;;;;;;11.63;7.07;;;2.80;99.90;;;;;;6043825;23;20027;-79
2021/11/23 00:53:06;;;;;;;8.90;6.25;;;2.60;99.90;;;;;;6075110;23;20526;-79
2021/11/23 00:55:39;;;;;;;9.43;6.95;;;2.70;99.90;;;;;;6064542;23;20048;-79
2021/11/23 00:58:07;;;;;;;8.65;6.22;;;2.70;99.90;;;;;;6070508;23;20034;-79
2021/11/23 01:00:35;;;;;;;10.45;6.93;;;2.70;99.90;;;;;;6075501;23;20443;-79
2021/11/23 01:03:04;;;;;;;11.02;8.10;;;2.70;99.90;;;;;;6090095;23;20038;-79
2021/11/23 01:05:31;;;;;;;12.38;7.72;;;2.60;99.90;;;;;;6096692;23;20014;-80
2021/11/23 01:08:00;;;;;;;11.00;7.15;;;2.60;99.90;;;;;;6097227;23;20029;-79
2021/11/23 01:10:28;;;;;;;12.55;9.05;;;2.60;99.90;;;;;;6070092;23;20030;-79
2021/11/23 01:12:56;;;;;;;8.52;6.78;;;2.60;99.90;;;;;;6075518;23;20026;-79
2021/11/23 01:15:24;;;;;;;14.10;7.68;;;2.70;99.90;;;;;;6066927;23;20359;-79
2021/11/23 01:17:52;;;;;;;12.63;7.47;;;2.70;99.90;;;;;;6072284;23;20037;-80
2021/11/23 01:20:21;;;;;;;10.73;8.30;;;2.60;99.90;;;;;;6039481;23;20023;-79
2021/11/23 01:22:49;;;;;;;11.93;8.77;;;2.60;99.90;;;;;;6063403;23;20022;-79
2021/11/23 01:25:17;;;;;;;9.82;7.30;;;2.70;99.90;;;;;;6063580;23;20015;-79
2021/11/23 01:27:45;;;;;;;14.43;7.97;;;2.70;99.90;;;;;;6066109;23;20023;-79
2021/11/23 01:30:13;;;;;;;12.13;7.85;;;2.60;99.90;;;;;;6070896;23;20034;-79
2021/11/23 01:32:41;;;;;;;13.20;8.15;;;2.60;99.90;;;;;;6073413;23;20027;-79
2021/11/23 01:35:12;;;;;;;12.55;8.52;;;2.60;99.90;;;;;;6067599;23;20030;-79
2021/11/23 01:37:43;;;;;;;10.88;6.85;;;2.60;99.90;;;;;;6073839;23;20104;-79
2021/11/23 01:40:12;;;;;;;10.85;7.88;;;2.60;99.90;;;;;;6074115;23;20019;-79
2021/11/23 01:42:40;;;;;;;15.45;9.30;;;2.60;99.90;;;;;;6091872;23;20065;-79
2021/11/23 01:45:09;;;;;;;10.32;6.88;;;2.60;99.90;;;;;;6049652;23;20022;-79
2021/11/23 01:47:40;;;;;;;13.00;9.50;;;2.60;99.90;;;;;;6039606;23;20019;-79
2021/11/23 01:50:11;;;;;;;14.75;8.25;;;2.50;99.90;;;;;;6061767;23;20355;-79
2021/11/23 01:52:40;;;;;;;12.93;9.57;;;2.50;99.90;;;;;;6049738;23;20011;-79
2021/11/23 01:55:09;;;;;;;14.93;9.40;;;2.50;99.90;;;;;;6041352;23;20030;-79
2021/11/23 01:57:38;;;;;;;12.80;8.77;;;2.50;99.90;;;;;;6064741;23;20019;-80
2021/11/23 02:00:08;;;;;;;11.13;7.45;;;2.50;99.90;;;;;;6049669;23;20015;-79
2021/11/23 02:02:44;;;;;;;11.77;7.18;;;2.50;99.90;;;;;;6069427;23;20031;-79
2021/11/23 02:05:13;;;;;;;13.90;9.65;;;2.50;99.90;;;;;;6074884;23;20034;-79
2021/11/23 02:07:41;;;;;;;11.73;9.38;;;2.50;99.90;;;;;;6064896;23;20026;-79
2021/11/23 02:10:10;;;;;;;12.55;8.68;;;2.50;99.90;;;;;;6070138;23;20023;-80
2021/11/23 02:12:39;;;;;;;12.20;7.72;;;2.50;99.90;;;;;;6039345;23;20030;-79
2021/11/23 02:15:08;;;;;;;14.68;8.18;;;2.40;99.90;;;;;;6039115;23;20019;-79
2021/11/23 02:17:37;;;;;;;12.57;8.48;;;2.50;99.90;;;;;;6039361;23;20526;-79
2021/11/23 02:20:17;;;;;;;13.50;8.13;;;2.50;99.90;;;;;;6074002;23;20011;-79
2021/11/23 02:22:46;;;;;;;9.25;7.35;;;2.40;99.90;;;;;;6068958;23;20031;-79
2021/11/23 02:25:15;;;;;;;8.55;7.05;;;2.40;99.90;;;;;;6074285;23;20011;-79
2021/11/23 02:27:47;;;;;;;11.15;7.47;;;2.40;99.90;;;;;;6063463;23;20034;-80
2021/11/23 02:30:15;;;;;;;13.05;8.43;;;2.50;99.90;;;;;;6092768;23;20346;-79
2021/11/23 02:32:52;;;;;;;9.50;6.50;;;2.40;99.90;;;;;;6071969;23;20023;-79
2021/11/23 02:35:23;;;;;;;9.15;6.85;;;2.40;99.90;;;;;;6066591;23;20027;-79
2021/11/23 02:37:55;;;;;;;12.02;7.80;;;2.40;99.90;;;;;;6064381;23;20031;-79
2021/11/23 02:40:24;;;;;;;10.60;7.65;;;2.40;99.90;;;;;;6074279;23;20015;-79
2021/11/23 02:42:52;;;;;;;11.63;7.07;;;2.40;99.90;;;;;;6068756;23;20454;-80
2021/11/23 02:45:23;;;;;;;13.05;8.95;;;2.30;99.90;;;;;;6074662;23;20418;-79
2021/11/23 02:47:51;;;;;;;7.80;5.82;;;2.30;99.90;;;;;;6039357;23;20030;-79
2021/11/23 02:50:20;;;;;;;13.30;9.48;;;2.30;99.90;;;;;;6068592;23;20023;-79
2021/11/23 02:52:54;;;;;;;11.23;7.63;;;2.30;99.90;;;;;;6039665;23;20335;-79
2021/11/23 02:56:12;;;;;;;12.45;6.53;;;2.30;99.90;;;;;;6040595;23;20782;-79
2021/11/23 02:59:21;;;;;;;9.63;7.10;;;2.20;99.90;;;;;;6066931;23;20026;-79
2021/11/23 03:02:17;;;;;;;7.85;5.88;;;2.30;99.90;;;;;;6046435;23;20481;-79
2021/11/23 03:04:52;;;;;;;8.45;6.93;;;2.10;99.90;;;;;;6096011;23;20018;-79
2021/11/23 03:07:21;;;;;;;11.13;7.82;;;2.20;99.90;;;;;;6066539;23;20026;-79
2021/11/23 03:09:49;;;;;;;9.55;5.82;;;2.10;99.90;;;;;;6071753;23;20426;-79
2021/11/23 03:12:33;;;;;;;8.02;5.55;;;2.00;99.90;;;;;;6075550;23;20335;-79
2021/11/23 03:15:42;;;;;;;9.27;7.05;;;2.10;99.90;;;;;;6067519;23;20034;-79
2021/11/23 03:18:38;;;;;;;10.32;7.32;;;2.10;99.90;;;;;;6070289;23;20034;-79
2021/11/23 03:21:05;;;;;;;3.75;3.42;;;2.10;99.90;;;;;;6075972;23;20040;-79
2021/11/23 03:23:33;;;;;;;12.27;6.82;;;2.00;99.90;;;;;;6063516;23;20038;-79
2021/11/23 03:26:05;;;;;;;8.93;6.75;;;2.00;99.90;;;;;;6073200;23;20022;-79
2021/11/23 03:28:33;;;;;;;11.48;8.57;;;2.10;99.90;;;;;;6076320;23;20014;-79
2021/11/23 03:31:01;;;;;;;8.23;6.72;;;2.10;99.90;;;;;;6090796;23;20038;-79
2021/11/23 03:33:28;;;;;;;8.35;6.50;;;2.10;99.90;;;;;;6040282;23;20030;-79
2021/11/23 03:35:56;;;;;;;10.68;6.30;;;2.00;99.90;;;;;;6098924;23;20014;-79
2021/11/23 03:38:24;;;;;;;7.20;6.05;;;2.00;99.90;;;;;;6071263;23;20031;-79
2021/11/23 03:40:52;;;;;;;12.15;7.20;;;2.00;99.90;;;;;;6076377;23;20355;-79
2021/11/23 03:43:19;;;;;;;8.63;7.45;;;2.00;99.90;;;;;;6090532;23;20019;-79
2021/11/23 03:45:47;;;;;;;7.85;6.30;;;2.00;99.90;;;;;;6040406;23;20030;-79
2021/11/23 03:48:15;;;;;;;7.75;6.65;;;2.00;99.90;;;;;;6017474;23;20053;-79
2021/11/23 03:50:43;;;;;;;11.32;6.93;;;1.90;99.90;;;;;;6092507;23;20030;-79
2021/11/23 03:53:11;;;;;;;9.55;6.95;;;1.90;99.90;;;;;;6075603;23;20014;-79
2021/11/23 03:55:40;;;;;;;8.73;6.18;;;1.80;99.90;;;;;;6066448;23;20030;-79
2021/11/23 03:58:08;;;;;;;5.75;4.38;;;1.90;99.90;;;;;;6072287;23;20447;-79
2021/11/23 04:00:35;;;;;;;6.85;4.97;;;1.70;99.90;;;;;;6075664;23;20019;-79
2021/11/23 04:03:04;;;;;;;13.02;7.32;;;1.60;99.90;;;;;;6068675;23;20030;-79
2021/11/23 04:05:31;;;;;;;7.68;6.13;;;1.60;99.90;;;;;;6049422;23;20030;-79
2021/11/23 04:07:59;;;;;;;9.65;8.00;;;1.60;99.90;;;;;;6075670;23;20018;-79
2021/11/23 04:10:27;;;;;;;8.88;6.25;;;1.50;99.90;;;;;;6070807;23;20034;-79
2021/11/23 04:12:55;;;;;;;5.93;4.65;;;1.50;99.90;;;;;;6074253;23;20015;-79
2021/11/23 04:15:23;;;;;;;9.15;6.28;;;1.50;99.90;;;;;;6040242;23;20038;-79
2021/11/23 04:17:52;;;;;;;7.88;5.30;;;1.30;99.90;;;;;;6072186;23;20027;-79
2021/11/23 04:20:19;;;;;;;10.73;6.80;;;1.30;99.90;;;;;;6075849;23;20015;-79
2021/11/23 04:22:47;;;;;;;9.73;5.18;;;1.20;99.90;;;;;;6069228;23;20042;-79
2021/11/23 04:25:15;;;;;;;10.20;4.97;;;1.20;99.90;;;;;;6074789;23;20015;-79
2021/11/23 04:27:43;;;;;;;12.32;6.65;;;1.20;99.90;;;;;;6064606;23;20031;-79
2021/11/23 04:30:13;;;;;;;7.57;6.10;;;1.10;99.90;;;;;;6046532;23;20035;-79
2021/11/23 04:32:43;;;;;;;8.52;6.07;;;1.10;99.90;;;;;;6096242;23;20027;-79
2021/11/23 04:35:12;;;;;;;8.18;5.93;;;1.00;99.90;;;;;;6067915;23;20053;-79
2021/11/23 04:37:40;;;;;;;7.43;6.55;;;0.90;99.90;;;;;;6073864;23;20018;-79
2021/11/23 04:40:09;;;;;;;11.60;8.43;;;0.90;99.90;;;;;;6074025;23;20015;-79
2021/11/23 04:42:37;;;;;;;5.53;4.50;;;0.80;99.90;;;;;;6070071;23;20027;-79
2021/11/23 04:45:07;;;;;;;6.43;4.93;;;0.70;99.90;;;;;;6075824;23;20019;-79
2021/11/23 04:47:36;;;;;;;8.20;7.00;;;0.50;99.90;;;;;;6066456;23;20023;-79
2021/11/23 04:50:06;;;;;;;8.95;6.07;;;0.40;99.90;;;;;;6072069;23;20363;-79
2021/11/23 04:52:33;;;;;;;10.63;7.18;;;0.30;99.90;;;;;;6075472;23;20022;-79
2021/11/23 04:55:02;;;;;;;6.95;5.28;;;0.30;99.90;;;;;;6067900;23;20030;-80
2021/11/23 04:57:30;;;;;;;5.80;3.90;;;0.20;99.90;;;;;;6075025;23;20018;-80
2021/11/23 05:00:00;;;;;;;10.45;6.93;;;0.20;99.90;;;;;;6049970;23;20048;-80
2021/11/23 05:02:27;;;;;;;12.35;9.23;;;0.10;99.90;;;;;;6070432;23;20748;-80
2021/11/23 05:04:56;;;;;;;8.10;5.68;;;0.10;99.90;;;;;;6039918;23;20019;-80
2021/11/23 05:07:23;;;;;;;7.93;6.00;;;0.00;99.90;;;;;;6066481;23;20037;-80
2021/11/23 05:09:51;;;;;;;9.88;7.00;;;0.00;99.90;;;;;;6046597;23;20471;-80
2021/11/23 05:12:20;;;;;;;6.13;5.13;;;-0.10;99.90;;;;;;6097556;23;20011;-80
2021/11/23 05:14:48;;;;;;;7.60;6.00;;;-0.10;99.90;;;;;;6069471;23;20023;-80
2021/11/23 05:17:17;;;;;;;9.60;6.88;;;-0.10;99.90;;;;;;6075468;23;20447;-80
2021/11/23 05:19:45;;;;;;;8.00;5.93;;;-0.20;99.90;;;;;;6039324;23;20027;-80
2021/11/23 05:22:12;;;;;;;6.20;5.53;;;-0.30;99.90;;;;;;6094059;23;20031;-80
2021/11/23 05:24:40;;;;;;;11.25;6.82;;;-0.20;99.90;;;;;;6096987;23;20015;-80
2021/11/23 05:27:08;;;;;;;8.00;5.13;;;-0.40;99.90;;;;;;6066473;23;20058;-80
2021/11/23 05:29:36;;;;;;;10.95;7.20;;;-0.40;99.90;;;;;;6096170;23;20014;-80
2021/11/23 05:32:04;;;;;;;10.48;6.50;;;-0.40;99.90;;;;;;6097040;23;20026;-80
2021/11/23 05:34:34;;;;;;;8.68;5.07;;;-0.50;99.90;;;;;;6091745;23;20034;-80
2021/11/23 05:37:01;;;;;;;10.48;6.88;;;-0.60;99.90;;;;;;6069277;23;20015;-80
2021/11/23 05:39:29;;;;;;;8.57;5.75;;;-0.60;99.90;;;;;;6087945;23;20022;-80
2021/11/23 05:41:57;;;;;;;10.93;6.95;;;-0.60;99.90;;;;;;6072043;23;20054;-80
2021/11/23 05:44:25;;;;;;;8.18;6.43;;;-0.60;99.90;;;;;;6075154;23;20042;-80
2021/11/23 05:46:52;;;;;;;7.20;5.28;;;-0.60;99.90;;;;;;6091134;23;20018;-80
2021/11/23 05:49:20;;;;;;;10.55;6.85;;;-0.60;99.90;;;;;;6075031;23;20487;-80
2021/11/23 05:51:48;;;;;;;7.97;5.05;;;-0.50;99.90;;;;;;6063379;23;20033;-80
2021/11/23 05:54:16;;;;;;;8.73;6.07;;;-0.60;99.90;;;;;;6070111;23;20026;-81
2021/11/23 05:56:44;;;;;;;9.05;6.43;;;-0.60;99.90;;;;;;6049752;23;20019;-81
2021/11/23 05:59:11;;;;;;;7.30;6.30;;;-0.50;99.90;;;;;;6067011;23;20778;-80
2021/11/23 06:01:39;;;;;;;12.02;6.95;;;-0.50;99.90;;;;;;6015248;23;20026;-80
2021/11/23 06:04:07;;;;;;;9.57;5.90;;;-0.40;99.90;;;;;;6074788;23;20015;-81
2021/11/23 06:06:35;;;;;;;8.15;6.75;;;-0.40;99.90;;;;;;6069899;23;20022;-81
2021/11/23 06:09:06;;;;;;;7.85;5.50;;;-0.50;99.90;;;;;;6074447;23;20026;-81
2021/11/23 06:11:34;;;;;;;10.77;6.07;;;-0.50;99.90;;;;;;6065333;23;20033;-81
2021/11/23 06:14:02;;;;;;;9.40;5.15;;;-0.50;99.90;;;;;;6062999;23;20023;-77
2021/11/23 06:16:31;;;;;;;10.43;6.30;;;-0.40;99.90;;;;;;6075189;23;20011;-80
2021/11/23 06:18:59;;;;;;;10.65;6.10;;;-0.50;99.90;;;;;;6067695;23;20037;-81
2021/11/23 06:21:27;;;;;;;10.25;7.15;;;-0.30;99.90;;;;;;6074238;23;20011;-82
2021/11/23 06:23:55;;;;;;;11.93;7.20;;;-0.40;99.90;;;;;;6096600;23;20019;-81
2021/11/23 06:26:23;;;;;;;9.88;5.60;;;-0.40;99.90;;;;;;6045098;23;20030;-81
2021/11/23 06:28:51;;;;;;;7.97;6.85;;;-0.50;99.90;;;;;;6039643;23;20038;-80
2021/11/23 06:31:19;;;;;;;9.77;5.30;;;-0.30;99.90;;;;;;6066889;23;20022;-80
2021/11/23 06:33:47;;;;;;;8.90;6.72;;;-0.20;99.90;;;;;;6058028;23;20019;-80
2021/11/23 06:36:15;;;;;;;6.93;4.88;;;-0.20;99.90;;;;;;6011656;23;20343;-82
2021/11/23 06:38:43;;;;;;;12.25;6.32;;;-0.10;99.90;;;;;;6008472;23;20023;-81
2021/11/23 06:41:11;;;;;;;10.25;6.30;;;0.00;99.90;;;;;;6010383;23;20031;-81
2021/11/23 06:43:38;;;;;;;10.77;5.80;;;0.00;99.90;;;;;;6033839;23;20019;-81
2021/11/23 06:46:06;;;;;;;9.65;6.22;;;0.10;99.90;;;;;;6011134;23;20038;-80
2021/11/23 06:48:34;;;;;;;14.18;8.73;;;0.20;99.90;;;;;;6047307;23;20024;-81
2021/11/23 06:51:02;;;;;;;9.38;7.30;;;0.30;99.90;;;;;;6011604;23;20027;-82
2021/11/23 06:53:30;;;;;;;6.53;5.55;;;0.30;99.90;;;;;;6058469;23;20030;-83
2021/11/23 06:55:57;;;;;;;9.82;6.90;;;0.40;99.90;;;;;;6060234;23;20042;-80
2021/11/23 06:58:25;;;;;;;12.05;7.68;;;0.40;99.90;;;;;;6012981;23;20035;-82
2021/11/23 07:00:53;;;;;;;11.40;7.35;;;0.50;99.90;;;;;;6046527;23;20019;-82
2021/11/23 07:03:21;;;;;;;11.05;6.43;;;0.60;99.90;;;;;;6086479;23;20026;-83
2021/11/23 07:05:49;;;;;;;10.48;6.00;;;0.60;99.90;;;;;;6045363;23;20019;-82
2021/11/23 07:08:26;;;;;;;10.30;7.93;;;0.70;99.90;;;;;;6047531;23;20016;-81
2021/11/23 07:10:54;;;;;;;9.00;6.18;;;0.80;99.90;;;;;;6035064;23;20031;-81
2021/11/23 07:13:22;;;;;;;11.10;7.28;;;0.80;99.90;;;;;;6048002;23;20019;-81
2021/11/23 07:15:52;;;;;;;9.55;7.78;;;0.90;99.90;;;;;;6036443;23;20028;-82
2021/11/23 07:18:20;;;;;;;11.10;6.75;;;0.90;99.90;;;;;;6012257;23;20034;-81
2021/11/23 07:20:48;;;;;;;8.75;6.47;;;0.90;99.90;;;;;;6045859;23;20034;-80
2021/11/23 07:23:16;;;;;;;10.18;6.45;;;1.00;99.90;;;;;;6038628;23;20031;-80
2021/11/23 07:25:44;;;;;;;12.63;6.38;;;1.00;99.90;;;;;;6035510;23;20053;-81
2021/11/23 07:28:12;;;;;;;8.18;6.05;;;1.10;99.90;;;;;;6047898;23;20022;-80
2021/11/23 07:30:40;;;;;;;12.18;6.32;;;1.00;99.90;;;;;;6039502;23;20030;-80
2021/11/23 07:33:08;;;;;;;9.07;6.07;;;1.00;99.90;;;;;;6036168;23;20027;-83
2021/11/23 07:35:35;;;;;;;10.90;6.72;;;1.00;99.90;;;;;;6036405;23;20463;-82
2021/11/23 07:38:03;;;;;;;16.25;6.75;;;1.00;99.90;;;;;;6010361;23;20340;-83
2021/11/23 07:40:32;;;;;;;9.40;6.18;;;1.00;99.90;;;;;;6012337;23;20019;-85
2021/11/23 07:43:00;;;;;;;11.60;8.18;;;1.00;99.90;;;;;;6012166;23;20028;-84
2021/11/23 07:45:43;;;;;;;9.57;7.85;;;1.10;99.90;;;;;;6060163;23;20073;-82
2021/11/23 07:48:12;;;;;;;11.38;7.88;;;1.10;99.90;;;;;;6046239;23;20618;-82
2021/11/23 07:50:40;;;;;;;11.23;6.78;;;1.20;99.90;;;;;;6040813;23;20027;-81
2021/11/23 07:53:08;;;;;;;8.00;6.72;;;1.20;99.90;;;;;;6047102;23;20031;-81
2021/11/23 07:55:37;;;;;;;13.38;10.25;;;1.30;99.90;;;;;;6035638;23;20028;-81
2021/11/23 07:58:05;;;;;;;9.45;6.22;;;1.40;99.90;;;;;;6058922;23;20494;-81
2021/11/23 08:00:33;;;;;;;8.98;7.68;;;1.50;99.90;;;;;;6045532;23;20015;-81
2021/11/23 08:03:01;;;;;;;7.93;6.50;;;1.50;99.90;;;;;;6038429;23;20024;-81
2021/11/23 08:05:33;;;;;;;9.65;7.47;;;1.50;99.90;;;;;;5989059;23;20016;-81
2021/11/23 08:08:03;;;;;;;11.18;6.97;;;1.40;99.90;;;;;;6022200;23;20440;-81
2021/11/23 08:10:31;;;;;;;12.68;9.32;;;1.30;99.90;;;;;;6041520;23;20356;-81
2021/11/23 08:13:00;;;;;;;12.90;9.63;;;1.30;99.90;;;;;;6045910;23;20020;-81
2021/11/23 08:15:29;;;;;;;11.55;8.10;;;1.30;99.90;;;;;;6037193;23;20030;-81
2021/11/23 08:17:57;;;;;;;8.65;5.95;;;1.40;99.90;;;;;;6019927;23;20042;-81
2021/11/23 08:20:25;;;;;;;8.80;7.20;;;1.40;99.90;;;;;;6045196;23;20019;-81
2021/11/23 08:22:53;;;;;;;6.88;4.82;;;1.50;99.90;;;;;;6011085;23;20034;-81
2021/11/23 08:25:21;;;;;;;8.23;6.50;;;1.40;99.90;;;;;;6046762;23;20015;-81
2021/11/23 08:27:50;;;;;;;10.75;7.32;;;1.50;99.90;;;;;;6035304;23;20023;-81
2021/11/23 08:30:18;;;;;;;11.15;8.63;;;1.50;99.90;;;;;;6043478;23;20350;-81
2021/11/23 08:32:47;;;;;;;9.48;8.55;;;1.60;99.90;;;;;;6019224;23;20016;-81
2021/11/23 08:35:15;;;;;;;8.15;7.55;;;1.60;99.90;;;;;;6037423;23;20224;-81
2021/11/23 08:37:43;;;;;;;13.15;7.35;;;1.70;99.90;;;;;;6045440;23;20019;-81
2021/11/23 08:40:11;;;;;;;11.73;7.90;;;1.80;99.90;;;;;;6043716;23;20026;-81
2021/11/23 08:42:40;;;;;;;10.88;6.95;;;1.80;99.90;;;;;;6035312;23;20030;-82
2021/11/23 08:45:10;;;;;;;12.57;7.35;;;1.90;99.90;;;;;;6047831;23;20038;-82
2021/11/23 08:47:39;;;;;;;6.20;5.13;;;1.90;99.90;;;;;;6036687;23;20023;-82
2021/11/23 08:50:11;;;;;;;4.07;3.78;;;2.00;99.90;;;;;;6012730;23;20034;-82
2021/11/23 08:52:39;;;;;;;6.82;4.53;;;2.00;99.90;;;;;;6048270;23;20011;-82
2021/11/23 08:55:07;;;;;;;8.52;6.70;;;2.00;99.90;;;;;;6012182;23;20035;-82
2021/11/23 08:57:36;;;;;;;5.40;4.75;;;2.10;99.90;;;;;;6045266;23;20020;-83
2021/11/23 09:00:15;;;;;;;10.80;9.48;;;2.20;99.90;;;;;;6045264;23;20012;-82
2021/11/23 09:02:46;;;;;;;8.05;6.38;;;2.20;99.90;;;;;;6012489;23;20028;-82
2021/11/23 09:05:15;;;;;;;5.68;5.28;;;2.30;99.90;;;;;;6047216;23;20015;-82
2021/11/23 09:07:44;;;;;;;10.65;7.57;;;2.30;99.90;;;;;;6012240;23;20034;-82
2021/11/23 09:10:20;;;;;;;12.60;11.38;;;2.30;99.90;;;;;;6040637;23;20027;-82
2021/11/23 09:12:50;;;;;;;6.75;5.22;;;2.30;99.90;;;;;;6046783;23;20019;-82
2021/11/23 09:15:19;;;;;;;7.43;5.53;;;2.30;99.90;;;;;;6037882;23;20034;-82
2021/11/23 09:17:48;;;;;;;6.40;4.78;;;2.50;99.90;;;;;;6059929;23;20016;-82
2021/11/23 09:20:17;;;;;;;18.63;8.50;;;3.20;99.90;;;;;;6044848;23;20027;-82
2021/11/23 09:22:46;;;;;;;10.13;6.45;;;3.50;99.90;;;;;;6040709;23;20050;-77
2021/11/23 09:25:16;;;;;;;10.73;6.53;;;3.70;99.90;;;;;;6045519;23;20406;-79
2021/11/23 09:27:44;;;;;;;7.22;6.53;;;3.40;99.90;;;;;;6036237;23;20413;-80
2021/11/23 09:30:14;;;;;;;8.65;6.30;;;3.20;99.90;;;;;;6036778;23;20034;-81
2021/11/23 09:32:43;;;;;;;10.02;7.55;;;3.00;99.90;;;;;;6043325;23;20019;-81
2021/11/23 09:35:13;;;;;;;6.47;4.82;;;3.20;99.90;;;;;;6037596;23;20023;-80
2021/11/23 09:37:43;;;;;;;6.00;5.43;;;3.50;99.90;;;;;;6044609;23;20015;-84
2021/11/23 09:40:11;;;;;;;4.90;4.35;;;3.50;99.90;;;;;;6033933;23;20023;-81
2021/11/23 09:42:39;;;;;;;8.02;5.78;;;3.60;99.90;;;;;;6040728;23;20023;-81
2021/11/23 09:45:08;;;;;;;8.38;6.63;;;3.70;99.90;;;;;;6046432;23;20015;-81
2021/11/23 09:47:36;;;;;;;10.45;7.72;;;3.80;99.90;;;;;;6037470;23;20036;-81
2021/11/23 09:50:04;;;;;;;6.15;5.55;;;3.70;99.90;;;;;;6042014;23;20031;-80
2021/11/23 09:52:33;;;;;;;9.63;6.65;;;3.60;99.90;;;;;;6042976;23;20015;-79
2021/11/23 09:55:02;;;;;;;6.10;5.47;;;3.50;99.90;;;;;;6038350;23;20038;-77
2021/11/23 09:57:30;;;;;;;8.10;5.43;;;3.40;99.90;;;;;;6045530;23;20439;-78
2021/11/23 10:00:00;;;;;;;10.13;7.82;;;3.30;99.90;;;;;;6046090;23;20598;-78
2021/11/23 10:02:31;;;;;;;8.65;7.50;;;3.30;99.90;;;;;;6041385;23;20451;-78
2021/11/23 10:05:06;;;;;;;9.27;6.93;;;3.40;99.90;;;;;;6044316;23;20028;-78
2021/11/23 10:07:39;;;;;;;8.55;6.07;;;3.70;99.90;;;;;;6037453;23;20034;-78
2021/11/23 10:10:15;;;;;;;6.63;5.43;;;3.70;99.90;;;;;;6041515;23;20040;-78
2021/11/23 10:12:58;;;;;;;7.10;6.55;;;3.80;99.90;;;;;;6045946;23;20022;-78
2021/11/23 10:15:29;;;;;;;7.10;6.50;;;3.80;99.90;;;;;;6037431;23;20035;-78
2021/11/23 10:18:13;;;;;;;13.30;7.95;;;3.80;99.90;;;;;;6043062;23;20038;-78
2021/11/23 10:20:52;;;;;;;5.93;5.43;;;3.90;99.90;;;;;;6044867;23;20019;-78
2021/11/23 10:23:26;;;;;;;7.82;6.63;;;4.20;99.90;;;;;;6037246;23;20035;-78
2021/11/23 10:26:00;;;;;;;8.38;5.75;;;4.30;99.90;;;;;;6043302;23;20027;-78
2021/11/23 10:28:29;;;;;;;9.77;7.88;;;4.50;99.90;;;;;;6046193;23;20027;-79
2021/11/23 10:30:59;;;;;;;9.60;8.18;;;4.60;99.90;;;;;;6038477;23;20024;-78
2021/11/23 10:33:28;;;;;;;10.32;6.70;;;4.70;99.90;;;;;;6055779;23;20116;-78
2021/11/23 10:35:58;;;;;;;12.05;7.28;;;4.50;99.90;;;;;;6074895;23;20018;-78
2021/11/23 10:38:27;;;;;;;8.90;7.20;;;4.50;99.90;;;;;;6069416;23;20031;-78
2021/11/23 10:40:55;;;;;;;8.00;5.60;;;4.40;99.90;;;;;;6070723;23;20015;-78
2021/11/23 10:43:23;;;;;;;9.88;8.45;;;4.50;99.90;;;;;;6041068;23;20026;-79
2021/11/23 10:45:55;;;;;;;8.45;6.72;;;4.40;99.90;;;;;;6072177;23;20782;-79
2021/11/23 10:48:26;;;;;;;9.65;6.60;;;4.40;99.90;;;;;;6049462;23;20104;-78
2021/11/23 10:51:11;;;;;;;8.63;6.43;;;4.40;99.90;;;;;;6066504;23;20038;-79
2021/11/23 10:53:46;;;;;;;33.88;28.83;;;4.20;99.90;;;;;;6071499;23;20025;-78
2021/11/23 10:56:16;;;;;;;9.32;7.22;;;4.30;99.90;;;;;;6074902;23;20015;-79
2021/11/23 10:58:46;;;;;;;9.35;8.15;;;4.30;99.90;;;;;;6068982;23;20033;-78
2021/11/23 11:01:18;;;;;;;10.25;8.23;;;4.30;99.90;;;;;;6048970;23;20372;-78
2021/11/23 11:03:48;;;;;;;10.55;7.53;;;4.60;99.90;;;;;;6064242;23;20022;-78
2021/11/23 11:06:17;;;;;;;8.32;7.53;;;4.70;99.90;;;;;;6045220;23;20031;-78
2021/11/23 11:08:47;;;;;;;10.95;8.50;;;4.80;99.90;;;;;;6073872;23;20026;-78
2021/11/23 11:11:19;;;;;;;8.20;7.35;;;5.20;99.90;;;;;;6066182;23;20031;-78
2021/11/23 11:13:52;;;;;;;9.20;7.68;;;5.30;99.90;;;;;;6039061;23;20041;-79
2021/11/23 11:16:21;;;;;;;7.75;6.88;;;5.20;99.90;;;;;;6073983;23;20015;-78
2021/11/23 11:19:20;;;;;;;9.38;6.90;;;5.10;99.90;;;;;;6042843;23;20023;-78
2021/11/23 11:21:48;;;;;;;8.75;7.78;;;5.20;99.90;;;;;;6034980;23;20035;-78
2021/11/23 11:24:51;;;;;;;12.50;9.02;;;5.20;99.90;;;;;;6072714;23;20347;-78
2021/11/23 11:27:35;;;;;;;10.38;9.25;;;5.30;99.90;;;;;;6066277;23;20038;-79
2021/11/23 11:30:33;;;;;;;11.95;7.97;;;5.30;99.90;;;;;;6070421;23;20023;-79
2021/11/23 11:33:04;;;;;;;12.93;9.98;;;5.30;99.90;;;;;;6060898;23;20027;-79
2021/11/23 11:35:33;;;;;;;6.32;4.93;;;5.30;99.90;;;;;;6040298;23;20031;-78
2021/11/23 11:38:05;;;;;;;10.65;7.68;;;5.20;99.90;;;;;;6068967;23;20034;-78
2021/11/23 11:40:34;;;;;;;;;;;5.30;99.90;;;;;;6076271;23;20108;-79
2021/11/23 11:43:07;;;;;;;13.15;10.48;;;5.40;99.90;;;;;;6069421;23;19929;-81
2021/11/23 11:45:52;;;;;;;6.72;6.22;;;5.50;99.90;;;;;;6074927;23;20338;-78
2021/11/23 11:48:32;;;;;;;6.72;6.25;;;5.50;99.90;;;;;;6075944;23;20021;-78
2021/11/23 11:51:07;;;;;;;12.33;10.37;;;5.30;99.90;;;;;;6068751;23;20025;-78
2021/11/23 11:53:43;;;;;;;11.13;8.05;;;5.20;99.90;;;;;;6074103;23;20022;-78
2021/11/23 11:56:16;;;;;;;14.07;9.13;;;5.10;99.90;;;;;;6050780;23;20041;-79
2021/11/23 11:58:44;;;;;;;11.43;8.50;;;5.20;99.90;;;;;;6056388;23;20030;-85
2021/11/23 12:01:22;;;;;;;13.07;11.18;;;5.20;99.90;;;;;;6017148;23;20033;-87
2021/11/23 12:04:09;;;;;;;14.95;9.93;;;5.20;99.90;;;;;;6016233;23;20027;-88
2021/11/23 12:07:08;;;;;;;14.43;11.27;;;5.20;99.90;;;;;;6010645;23;20043;-82
2021/11/23 12:09:48;;;;;;;6.63;5.93;;;5.20;99.90;;;;;;5986909;23;20023;-84
2021/11/23 12:12:16;;;;;;;12.32;10.32;;;5.30;99.90;;;;;;6011036;23;20030;-81
2021/11/23 12:15:03;;;;;;;12.15;10.50;;;5.30;99.90;;;;;;5986795;23;20038;-81
2021/11/23 12:17:51;;;;;;;10.65;8.88;;;5.50;99.90;;;;;;6042948;23;20067;-84
2021/11/23 12:20:33;;;;;;;15.15;12.40;;;5.70;99.90;;;;;;6011583;23;20038;-82
2021/11/23 12:23:14;;;;;;;8.90;7.63;;;5.90;99.90;;;;;;6036603;23;20042;-81
2021/11/23 12:26:13;;;;;;;13.43;8.35;;;5.90;99.90;;;;;;6042051;23;20151;-80
2021/11/23 12:28:55;;;;;;;13.45;9.80;;;5.60;99.90;;;;;;6013060;23;20015;-80
2021/11/23 12:31:28;;;;;;;13.77;10.68;;;5.70;99.90;;;;;;6036103;23;20351;-78
2021/11/23 12:34:02;;;;;;;13.93;12.50;;;5.60;99.90;;;;;;6067722;23;20026;-79
2021/11/23 12:36:34;;;;;;;15.50;10.38;;;5.40;99.90;;;;;;6075783;23;20015;-80
2021/11/23 12:39:16;;;;;;;11.57;9.68;;;5.50;99.90;;;;;;6067364;23;20022;-80
2021/11/23 12:41:45;;;;;;;14.88;13.35;;;5.50;99.90;;;;;;6074020;23;20025;-80
2021/11/23 12:44:22;;;;;;;13.45;10.40;;;5.40;99.90;;;;;;6075317;23;20021;-80
2021/11/23 12:47:01;;;;;;;15.30;13.70;;;5.40;99.90;;;;;;6069548;23;20023;-80
2021/11/23 12:49:34;;;;;;;12.25;9.98;;;5.40;99.90;;;;;;6073925;23;20019;-80
2021/11/23 12:52:06;;;;;;;12.25;10.45;;;5.50;99.90;;;;;;6075286;23;20015;-80
2021/11/23 12:54:41;;;;;;;14.88;11.73;;;5.60;99.90;;;;;;6069667;23;20037;-80
2021/11/23 12:57:14;;;;;;;12.35;9.20;;;5.60;99.90;;;;;;6074962;23;20342;-80
2021/11/23 12:59:52;;;;;;;13.93;9.90;;;5.50;99.90;;;;;;6064914;23;20031;-79
2021/11/23 13:02:36;;;;;;;13.15;10.38;;;5.40;99.90;;;;;;6070471;23;20344;-80
2021/11/23 13:05:23;;;;;;;13.60;10.60;;;5.50;99.90;;;;;;6074390;23;20552;-80
2021/11/23 13:08:10;;;;;;;12.88;11.13;;;5.60;99.90;;;;;;6039009;23;20037;-79
2021/11/23 13:10:48;;;;;;;13.02;10.93;;;5.60;99.90;;;;;;6068400;23;20022;-79